createdAt,value
2018-12-09T00:00:40.732Z,984.25
2018-12-09T00:01:40.726Z,984.24
2018-12-09T00:02:40.720Z,984.19
2018-12-09T00:03:40.708Z,984.21
2018-12-09T00:04:41.034Z,984.17
2018-12-09T00:05:40.686Z,984.18
2018-12-09T00:06:40.676Z,984.27
2018-12-09T00:07:40.658Z,984.20
2018-12-09T00:08:40.654Z,984.20
2018-12-09T00:09:40.641Z,984.24
2018-12-09T00:10:40.681Z,984.25
2018-12-09T00:11:40.618Z,984.27
2018-12-09T00:12:40.607Z,984.23
2018-12-09T00:13:40.596Z,984.28
2018-12-09T00:14:40.586Z,984.23
2018-12-09T00:15:40.576Z,984.30
2018-12-09T00:16:40.647Z,984.30
2018-12-09T00:17:40.556Z,984.24
2018-12-09T00:18:40.546Z,984.29
2018-12-09T00:19:40.533Z,984.43
2018-12-09T00:20:40.525Z,984.33
2018-12-09T00:21:51.579Z,984.35
2018-12-09T00:22:40.498Z,984.34
2018-12-09T00:23:40.495Z,984.30
2018-12-09T00:24:40.484Z,984.31
2018-12-09T00:25:40.473Z,984.34
2018-12-09T00:26:40.464Z,984.40
2018-12-09T00:27:40.467Z,984.33
2018-12-09T00:28:40.438Z,984.36
2018-12-09T00:29:40.436Z,984.31
2018-12-09T00:30:40.425Z,984.33
2018-12-09T00:31:40.406Z,984.27
2018-12-09T00:32:40.399Z,984.28
2018-12-09T00:33:40.405Z,984.36
2018-12-09T00:34:40.376Z,984.27
2018-12-09T00:35:40.365Z,984.28
2018-12-09T00:36:40.352Z,984.23
2018-12-09T00:37:40.348Z,984.27
2018-12-09T00:38:40.329Z,984.36
2018-12-09T00:39:40.361Z,984.35
2018-12-09T00:40:40.320Z,984.38
2018-12-09T00:41:40.300Z,984.32
2018-12-09T00:42:43.566Z,984.34
2018-12-09T00:43:40.275Z,984.29
2018-12-09T00:44:40.272Z,984.26
2018-12-09T00:45:40.298Z,984.22
2018-12-09T00:46:40.250Z,984.39
2018-12-09T00:47:40.238Z,984.29
2018-12-09T00:48:40.223Z,984.22
2018-12-09T00:49:40.213Z,984.33
2018-12-09T00:50:40.206Z,984.29
2018-12-09T00:51:40.235Z,984.31
2018-12-09T00:52:50.713Z,984.24
2018-12-09T00:53:40.177Z,984.35
2018-12-09T00:54:40.162Z,984.25
2018-12-09T00:55:40.150Z,984.27
2018-12-09T00:56:40.140Z,984.29
2018-12-09T00:57:40.939Z,984.25
2018-12-09T00:58:40.125Z,984.30
2018-12-09T00:59:40.108Z,984.30
2018-12-09T01:00:40.099Z,984.38
2018-12-09T01:01:40.092Z,984.33
2018-12-09T01:02:40.078Z,984.41
2018-12-09T01:03:40.083Z,984.36
2018-12-09T01:04:40.053Z,984.33
2018-12-09T01:05:40.052Z,984.28
2018-12-09T01:06:40.033Z,984.34
2018-12-09T01:07:40.021Z,984.36
2018-12-09T01:08:40.015Z,984.32
2018-12-09T01:09:40.046Z,984.31
2018-12-09T01:10:39.998Z,984.35
2018-12-09T01:11:39.987Z,984.37
2018-12-09T01:12:39.970Z,984.38
2018-12-09T01:13:39.955Z,984.34
2018-12-09T01:14:39.948Z,984.38
2018-12-09T01:15:40.076Z,984.39
2018-12-09T01:16:39.930Z,984.40
2018-12-09T01:17:47.206Z,984.36
2018-12-09T01:18:39.903Z,984.36
2018-12-09T01:19:39.898Z,984.35
2018-12-09T01:20:39.887Z,984.40
2018-12-09T01:21:40.056Z,984.38
2018-12-09T01:22:39.866Z,984.44
2018-12-09T01:23:39.853Z,984.46
2018-12-09T01:24:39.840Z,984.44
2018-12-09T01:25:39.836Z,984.33
2018-12-09T01:26:39.823Z,984.37
2018-12-09T01:27:39.848Z,984.39
2018-12-09T01:28:39.801Z,984.40
2018-12-09T01:29:39.787Z,984.39
2018-12-09T01:30:39.786Z,984.39
2018-12-09T01:31:39.764Z,984.36
2018-12-09T01:32:39.756Z,984.40
2018-12-09T01:33:39.783Z,984.42
2018-12-09T01:34:39.736Z,984.37
2018-12-09T01:35:39.730Z,984.41
2018-12-09T01:36:39.722Z,984.35
2018-12-09T01:37:39.702Z,984.39
2018-12-09T01:38:39.695Z,984.42
2018-12-09T01:39:39.759Z,984.35
2018-12-09T01:40:39.672Z,984.33
2018-12-09T01:41:39.687Z,984.35
2018-12-09T01:42:39.656Z,984.31
2018-12-09T01:43:39.643Z,984.37
2018-12-09T01:44:39.626Z,984.36
2018-12-09T01:45:39.656Z,984.44
2018-12-09T01:46:39.608Z,984.36
2018-12-09T01:47:39.633Z,984.35
2018-12-09T01:48:49.802Z,984.35
2018-12-09T01:49:39.579Z,984.37
2018-12-09T01:50:39.562Z,984.42
2018-12-09T01:51:39.589Z,984.32
2018-12-09T01:52:39.543Z,984.29
2018-12-09T01:53:39.533Z,984.26
2018-12-09T01:54:39.521Z,984.32
2018-12-09T01:55:39.508Z,984.28
2018-12-09T01:56:39.500Z,984.40
2018-12-09T01:57:39.565Z,984.34
2018-12-09T01:58:39.481Z,984.30
2018-12-09T01:59:39.464Z,984.32
2018-12-09T02:00:39.454Z,984.40
2018-12-09T02:01:39.445Z,984.38
2018-12-09T02:02:39.441Z,984.32
2018-12-09T02:03:40.311Z,984.36
2018-12-09T02:04:39.418Z,984.33
2018-12-09T02:05:39.402Z,984.32
2018-12-09T02:06:39.390Z,984.31
2018-12-09T02:07:39.385Z,984.36
2018-12-09T02:08:39.381Z,984.51
2018-12-09T02:09:39.380Z,984.32
2018-12-09T02:10:39.356Z,984.27
2018-12-09T02:11:39.338Z,984.30
2018-12-09T02:12:39.335Z,984.42
2018-12-09T02:13:39.321Z,984.39
2018-12-09T02:14:39.316Z,984.32
2018-12-09T02:15:39.574Z,984.30
2018-12-09T02:16:39.289Z,984.42
2018-12-09T02:17:39.282Z,984.40
2018-12-09T02:18:39.268Z,984.38
2018-12-09T02:19:49.255Z,984.35
2018-12-09T02:20:39.243Z,984.34
2018-12-09T02:21:39.603Z,984.39
2018-12-09T02:22:39.225Z,984.34
2018-12-09T02:23:39.209Z,984.34
2018-12-09T02:24:39.211Z,984.39
2018-12-09T02:25:39.192Z,984.34
2018-12-09T02:26:39.180Z,984.37
2018-12-09T02:27:39.593Z,984.33
2018-12-09T02:28:39.159Z,984.33
2018-12-09T02:29:39.151Z,984.31
2018-12-09T02:30:39.135Z,984.28
2018-12-09T02:31:39.129Z,984.31
2018-12-09T02:32:39.123Z,984.32
2018-12-09T02:33:39.145Z,984.29
2018-12-09T02:34:39.092Z,984.28
2018-12-09T02:35:39.087Z,984.36
2018-12-09T02:36:39.076Z,984.36
2018-12-09T02:37:39.069Z,984.35
2018-12-09T02:38:39.055Z,984.32
2018-12-09T02:39:39.095Z,984.25
2018-12-09T02:40:39.034Z,984.14
2018-12-09T02:41:39.131Z,984.24
2018-12-09T02:42:39.012Z,984.33
2018-12-09T02:43:39.010Z,984.21
2018-12-09T02:44:38.993Z,984.12
2018-12-09T02:45:39.000Z,984.26
2018-12-09T02:46:38.969Z,984.16
2018-12-09T02:47:38.953Z,984.32
2018-12-09T02:48:38.944Z,984.22
2018-12-09T02:49:38.944Z,984.20
2018-12-09T02:50:50.103Z,984.37
2018-12-09T02:51:38.911Z,984.24
2018-12-09T02:52:38.905Z,984.21
2018-12-09T02:53:38.896Z,984.25
2018-12-09T02:54:38.879Z,984.23
2018-12-09T02:55:38.877Z,984.25
2018-12-09T02:56:38.894Z,984.43
2018-12-09T02:57:38.846Z,984.41
2018-12-09T02:58:45.827Z,984.51
2018-12-09T02:59:38.827Z,984.43
2018-12-09T03:00:38.816Z,984.35
2018-12-09T03:01:38.807Z,984.38
2018-12-09T03:02:39.583Z,984.36
2018-12-09T03:03:46.067Z,984.28
2018-12-09T03:04:38.780Z,984.39
2018-12-09T03:05:38.764Z,984.30
2018-12-09T03:06:38.758Z,984.29
2018-12-09T03:07:38.748Z,984.25
2018-12-09T03:08:38.777Z,984.28
2018-12-09T03:09:45.722Z,984.35
2018-12-09T03:10:38.712Z,984.36
2018-12-09T03:11:38.699Z,984.35
2018-12-09T03:12:38.689Z,984.36
2018-12-09T03:13:38.682Z,984.40
2018-12-09T03:14:38.707Z,984.30
2018-12-09T03:15:38.659Z,984.36
2018-12-09T03:16:38.652Z,984.37
2018-12-09T03:17:38.637Z,984.31
2018-12-09T03:18:38.631Z,984.36
2018-12-09T03:19:38.620Z,984.30
2018-12-09T03:20:46.772Z,984.31
2018-12-09T03:21:38.597Z,984.32
2018-12-09T03:22:38.579Z,984.32
2018-12-09T03:23:38.575Z,984.27
2018-12-09T03:24:38.560Z,984.34
2018-12-09T03:25:38.566Z,984.31
2018-12-09T03:26:38.576Z,984.20
2018-12-09T03:27:38.535Z,984.31
2018-12-09T03:28:38.531Z,984.37
2018-12-09T03:29:38.512Z,984.37
2018-12-09T03:30:45.483Z,984.37
2018-12-09T03:31:38.495Z,984.40
2018-12-09T03:32:38.556Z,984.35
2018-12-09T03:33:38.465Z,984.40
2018-12-09T03:34:38.458Z,984.32
2018-12-09T03:35:38.444Z,984.40
2018-12-09T03:36:38.446Z,984.33
2018-12-09T03:37:46.252Z,984.33
2018-12-09T03:38:38.412Z,984.31
2018-12-09T03:39:38.403Z,984.33
2018-12-09T03:40:38.388Z,984.32
2018-12-09T03:41:45.366Z,984.29
2018-12-09T03:42:38.369Z,984.27
2018-12-09T03:43:38.396Z,984.25
2018-12-09T03:44:38.347Z,984.32
2018-12-09T03:45:38.339Z,984.29
2018-12-09T03:46:38.324Z,984.31
2018-12-09T03:47:38.316Z,984.27
2018-12-09T03:48:38.307Z,984.27
2018-12-09T03:49:38.795Z,984.23
2018-12-09T03:50:38.281Z,984.35
2018-12-09T03:51:38.274Z,984.23
2018-12-09T03:52:38.260Z,984.20
2018-12-09T03:53:38.267Z,984.23
2018-12-09T03:54:38.238Z,984.26
2018-12-09T03:55:38.775Z,984.28
2018-12-09T03:56:38.220Z,984.26
2018-12-09T03:57:38.204Z,984.24
2018-12-09T03:58:45.184Z,984.21
2018-12-09T03:59:38.195Z,984.23
2018-12-09T04:00:38.179Z,984.34
2018-12-09T04:01:38.803Z,984.27
2018-12-09T04:02:38.182Z,984.23
2018-12-09T04:03:38.150Z,984.22
2018-12-09T04:04:38.135Z,984.21
2018-12-09T04:05:38.121Z,984.27
2018-12-09T04:06:38.112Z,984.21
2018-12-09T04:07:38.135Z,984.20
2018-12-09T04:08:38.091Z,984.23
2018-12-09T04:09:38.080Z,984.27
2018-12-09T04:10:38.069Z,984.25
2018-12-09T04:11:38.057Z,984.39
2018-12-09T04:12:38.049Z,984.31
2018-12-09T04:13:38.825Z,984.43
2018-12-09T04:14:38.021Z,984.36
2018-12-09T04:15:38.012Z,984.40
2018-12-09T04:16:44.987Z,984.36
2018-12-09T04:17:37.990Z,984.40
2018-12-09T04:18:45.854Z,984.35
2018-12-09T04:19:37.972Z,984.32
2018-12-09T04:20:37.958Z,984.34
2018-12-09T04:21:44.933Z,984.39
2018-12-09T04:22:37.938Z,984.27
2018-12-09T04:23:44.912Z,984.24
2018-12-09T04:24:45.420Z,984.30
2018-12-09T04:25:37.911Z,984.29
2018-12-09T04:26:37.892Z,984.27
2018-12-09T04:27:37.891Z,984.29
2018-12-09T04:28:37.885Z,984.39
2018-12-09T04:29:37.878Z,984.37
2018-12-09T04:30:37.893Z,984.36
2018-12-09T04:31:37.849Z,984.35
2018-12-09T04:32:44.819Z,984.41
2018-12-09T04:33:37.823Z,984.37
2018-12-09T04:34:37.926Z,984.40
2018-12-09T04:35:37.801Z,984.42
2018-12-09T04:36:37.823Z,984.46
2018-12-09T04:37:37.786Z,984.50
2018-12-09T04:38:37.837Z,984.48
2018-12-09T04:39:37.756Z,984.50
2018-12-09T04:40:37.743Z,984.47
2018-12-09T04:41:37.743Z,984.38
2018-12-09T04:42:37.938Z,984.40
2018-12-09T04:43:44.700Z,984.44
2018-12-09T04:44:37.708Z,984.41
2018-12-09T04:45:37.694Z,984.49
2018-12-09T04:46:37.680Z,984.41
2018-12-09T04:47:37.668Z,984.46
2018-12-09T04:48:37.703Z,984.45
2018-12-09T04:49:37.648Z,984.36
2018-12-09T04:50:37.643Z,984.51
2018-12-09T04:51:37.631Z,984.44
2018-12-09T04:52:37.618Z,984.40
2018-12-09T04:53:37.611Z,984.41
2018-12-09T04:54:37.610Z,984.42
2018-12-09T04:55:37.589Z,984.48
2018-12-09T04:56:37.584Z,984.43
2018-12-09T04:57:37.563Z,984.48
2018-12-09T04:58:37.556Z,984.49
2018-12-09T04:59:37.538Z,984.47
2018-12-09T05:00:37.926Z,984.56
2018-12-09T05:01:37.566Z,984.50
2018-12-09T05:02:37.512Z,984.51
2018-12-09T05:03:37.512Z,984.59
2018-12-09T05:04:44.559Z,984.59
2018-12-09T05:05:37.474Z,984.57
2018-12-09T05:06:37.506Z,984.61
2018-12-09T05:07:37.461Z,984.62
2018-12-09T05:08:37.442Z,984.65
2018-12-09T05:09:37.446Z,984.60
2018-12-09T05:10:37.427Z,984.65
2018-12-09T05:11:37.414Z,984.68
2018-12-09T05:12:37.445Z,984.62
2018-12-09T05:13:37.398Z,984.62
2018-12-09T05:14:37.387Z,984.77
2018-12-09T05:15:37.378Z,984.75
2018-12-09T05:16:37.358Z,984.74
2018-12-09T05:17:37.359Z,984.67
2018-12-09T05:18:37.380Z,984.72
2018-12-09T05:19:37.328Z,984.73
2018-12-09T05:20:37.318Z,984.62
2018-12-09T05:21:37.307Z,984.59
2018-12-09T05:22:37.299Z,984.67
2018-12-09T05:23:37.285Z,984.71
2018-12-09T05:24:37.319Z,984.68
2018-12-09T05:25:37.262Z,984.73
2018-12-09T05:26:37.252Z,984.72
2018-12-09T05:27:37.247Z,984.67
2018-12-09T05:28:37.231Z,984.68
2018-12-09T05:29:37.220Z,984.71
2018-12-09T05:30:37.469Z,984.83
2018-12-09T05:31:37.201Z,984.81
2018-12-09T05:32:37.190Z,984.73
2018-12-09T05:33:37.181Z,984.73
2018-12-09T05:34:37.165Z,984.74
2018-12-09T05:35:47.974Z,984.73
2018-12-09T05:36:37.151Z,984.79
2018-12-09T05:37:37.141Z,984.75
2018-12-09T05:38:37.126Z,984.82
2018-12-09T05:39:37.117Z,984.79
2018-12-09T05:40:37.108Z,984.76
2018-12-09T05:41:37.127Z,984.83
2018-12-09T05:42:37.089Z,984.82
2018-12-09T05:43:37.077Z,984.86
2018-12-09T05:44:37.059Z,984.89
2018-12-09T05:45:37.048Z,984.88
2018-12-09T05:46:37.046Z,984.91
2018-12-09T05:47:37.074Z,984.94
2018-12-09T05:48:37.019Z,984.94
2018-12-09T05:49:37.011Z,984.90
2018-12-09T05:50:36.999Z,984.93
2018-12-09T05:51:36.987Z,984.88
2018-12-09T05:52:37.068Z,984.95
2018-12-09T05:53:37.474Z,984.95
2018-12-09T05:54:37.038Z,984.97
2018-12-09T05:55:36.942Z,984.89
2018-12-09T05:56:36.933Z,984.91
2018-12-09T05:57:36.925Z,985.00
2018-12-09T05:58:36.913Z,984.94
2018-12-09T05:59:36.947Z,985.02
2018-12-09T06:00:36.891Z,985.04
2018-12-09T06:01:36.885Z,985.03
2018-12-09T06:02:36.867Z,984.98
2018-12-09T06:03:36.984Z,984.99
2018-12-09T06:04:36.848Z,984.94
2018-12-09T06:05:37.631Z,985.02
2018-12-09T06:06:49.103Z,985.02
2018-12-09T06:07:36.865Z,985.04
2018-12-09T06:08:36.809Z,985.00
2018-12-09T06:09:36.799Z,984.99
2018-12-09T06:10:36.787Z,985.00
2018-12-09T06:11:36.794Z,984.93
2018-12-09T06:12:36.760Z,984.99
2018-12-09T06:13:36.754Z,984.95
2018-12-09T06:14:36.746Z,985.08
2018-12-09T06:15:36.736Z,985.03
2018-12-09T06:16:36.723Z,985.05
2018-12-09T06:17:36.747Z,985.04
2018-12-09T06:18:36.698Z,984.99
2018-12-09T06:19:36.688Z,985.00
2018-12-09T06:20:36.682Z,985.01
2018-12-09T06:21:36.673Z,984.96
2018-12-09T06:22:36.659Z,984.99
2018-12-09T06:23:36.980Z,985.03
2018-12-09T06:24:36.638Z,985.04
2018-12-09T06:25:36.621Z,985.03
2018-12-09T06:26:36.614Z,985.10
2018-12-09T06:27:36.599Z,984.97
2018-12-09T06:28:36.592Z,985.00
2018-12-09T06:29:36.980Z,984.96
2018-12-09T06:30:36.570Z,984.98
2018-12-09T06:31:36.562Z,985.01
2018-12-09T06:32:36.557Z,985.06
2018-12-09T06:33:36.537Z,985.06
2018-12-09T06:34:36.530Z,985.11
2018-12-09T06:35:36.554Z,985.16
2018-12-09T06:36:36.512Z,985.16
2018-12-09T06:37:46.816Z,985.11
2018-12-09T06:38:36.486Z,985.13
2018-12-09T06:39:36.475Z,985.12
2018-12-09T06:40:36.464Z,985.12
2018-12-09T06:41:36.496Z,985.21
2018-12-09T06:42:36.441Z,985.16
2018-12-09T06:43:36.436Z,985.15
2018-12-09T06:44:36.432Z,985.20
2018-12-09T06:45:36.412Z,985.18
2018-12-09T06:46:36.401Z,985.23
2018-12-09T06:47:36.434Z,985.16
2018-12-09T06:48:36.379Z,985.20
2018-12-09T06:49:36.371Z,985.22
2018-12-09T06:50:36.359Z,985.31
2018-12-09T06:51:36.351Z,985.30
2018-12-09T06:52:36.334Z,985.44
2018-12-09T06:53:36.368Z,985.23
2018-12-09T06:54:36.316Z,985.24
2018-12-09T06:55:36.311Z,985.28
2018-12-09T06:56:36.289Z,985.24
2018-12-09T06:57:36.280Z,985.26
2018-12-09T06:58:36.273Z,985.27
2018-12-09T06:59:36.483Z,985.29
2018-12-09T07:00:36.246Z,985.35
2018-12-09T07:01:36.243Z,985.33
2018-12-09T07:02:36.226Z,985.41
2018-12-09T07:03:36.220Z,985.48
2018-12-09T07:04:36.206Z,985.39
2018-12-09T07:05:36.477Z,985.38
2018-12-09T07:06:36.188Z,985.40
2018-12-09T07:07:36.184Z,985.41
2018-12-09T07:08:46.152Z,985.41
2018-12-09T07:09:36.154Z,985.43
2018-12-09T07:10:36.144Z,985.40
2018-12-09T07:11:36.170Z,985.37
2018-12-09T07:12:36.123Z,985.37
2018-12-09T07:13:36.159Z,985.42
2018-12-09T07:14:36.100Z,985.43
2018-12-09T07:15:36.086Z,985.32
2018-12-09T07:16:36.079Z,985.41
2018-12-09T07:17:36.082Z,985.41
2018-12-09T07:18:36.054Z,985.41
2018-12-09T07:19:36.046Z,985.43
2018-12-09T07:20:36.039Z,985.45
2018-12-09T07:21:36.032Z,985.41
2018-12-09T07:22:36.018Z,985.45
2018-12-09T07:23:36.041Z,985.48
2018-12-09T07:24:35.992Z,985.48
2018-12-09T07:25:35.979Z,985.46
2018-12-09T07:26:35.970Z,985.41
2018-12-09T07:27:35.972Z,985.49
2018-12-09T07:28:35.950Z,985.42
2018-12-09T07:29:35.961Z,985.49
2018-12-09T07:30:35.927Z,985.47
2018-12-09T07:31:35.918Z,985.47
2018-12-09T07:32:35.911Z,985.45
2018-12-09T07:33:35.893Z,985.53
2018-12-09T07:34:35.893Z,985.55
2018-12-09T07:35:35.911Z,985.49
2018-12-09T07:36:35.864Z,985.53
2018-12-09T07:37:35.856Z,985.59
2018-12-09T07:38:35.847Z,985.65
2018-12-09T07:39:46.179Z,985.59
2018-12-09T07:40:35.825Z,985.61
2018-12-09T07:41:36.795Z,985.52
2018-12-09T07:42:35.802Z,985.57
2018-12-09T07:43:35.788Z,985.48
2018-12-09T07:44:35.785Z,985.54
2018-12-09T07:45:35.781Z,985.56
2018-12-09T07:46:35.754Z,985.54
2018-12-09T07:47:36.541Z,985.55
2018-12-09T07:48:35.739Z,985.57
2018-12-09T07:49:35.728Z,985.64
2018-12-09T07:50:35.720Z,985.64
2018-12-09T07:51:35.704Z,985.62
2018-12-09T07:52:35.695Z,985.64
2018-12-09T07:53:35.720Z,985.63
2018-12-09T07:54:35.672Z,985.61
2018-12-09T07:55:35.658Z,985.63
2018-12-09T07:56:35.651Z,985.60
2018-12-09T07:57:35.644Z,985.61
2018-12-09T07:58:35.629Z,985.57
2018-12-09T07:59:36.099Z,985.62
2018-12-09T08:00:35.607Z,985.61
2018-12-09T08:01:35.597Z,985.59
2018-12-09T08:02:35.589Z,985.63
2018-12-09T08:03:35.577Z,985.60
2018-12-09T08:04:35.563Z,985.56
2018-12-09T08:05:35.595Z,985.51
2018-12-09T08:06:35.541Z,985.56
2018-12-09T08:07:35.533Z,985.50
2018-12-09T08:08:35.522Z,985.59
2018-12-09T08:09:35.516Z,985.52
2018-12-09T08:10:45.568Z,985.59
2018-12-09T08:11:35.488Z,985.61
2018-12-09T08:12:35.485Z,985.66
2018-12-09T08:13:35.469Z,985.64
2018-12-09T08:14:35.461Z,985.67
2018-12-09T08:15:35.453Z,985.61
2018-12-09T08:16:36.210Z,985.59
2018-12-09T08:17:35.430Z,985.59
2018-12-09T08:18:35.418Z,985.64
2018-12-09T08:19:35.458Z,985.66
2018-12-09T08:20:35.395Z,985.69
2018-12-09T08:21:35.386Z,985.66
2018-12-09T08:22:35.537Z,985.75
2018-12-09T08:23:35.361Z,985.71
2018-12-09T08:24:35.352Z,985.67
2018-12-09T08:25:35.344Z,985.65
2018-12-09T08:26:42.317Z,985.66
2018-12-09T08:27:35.319Z,985.63
2018-12-09T08:28:35.343Z,985.72
2018-12-09T08:29:35.391Z,985.74
2018-12-09T08:30:35.287Z,985.72
2018-12-09T08:31:42.267Z,985.70
2018-12-09T08:32:42.254Z,985.70
2018-12-09T08:33:35.253Z,985.77
2018-12-09T08:34:35.631Z,985.81
2018-12-09T08:35:35.234Z,985.78
2018-12-09T08:36:35.319Z,985.83
2018-12-09T08:37:35.222Z,985.80
2018-12-09T08:38:35.205Z,985.79
2018-12-09T08:39:35.195Z,985.76
2018-12-09T08:40:35.627Z,985.72
2018-12-09T08:41:35.172Z,985.71
2018-12-09T08:42:35.157Z,985.70
2018-12-09T08:43:35.167Z,985.78
2018-12-09T08:44:35.137Z,985.82
2018-12-09T08:45:35.138Z,985.85
2018-12-09T08:46:35.133Z,985.78
2018-12-09T08:47:35.159Z,985.72
2018-12-09T08:48:35.096Z,985.73
2018-12-09T08:49:35.142Z,985.71
2018-12-09T08:50:35.075Z,985.80
2018-12-09T08:51:35.062Z,985.71
2018-12-09T08:52:35.108Z,985.75
2018-12-09T08:53:35.046Z,985.77
2018-12-09T08:54:35.045Z,985.80
2018-12-09T08:55:35.019Z,985.76
2018-12-09T08:56:35.048Z,985.78
2018-12-09T08:57:35.003Z,985.76
2018-12-09T08:58:35.066Z,985.77
2018-12-09T08:59:34.981Z,985.76
2018-12-09T09:00:34.969Z,985.80
2018-12-09T09:01:34.979Z,985.88
2018-12-09T09:02:34.953Z,985.86
2018-12-09T09:03:45.173Z,985.87
2018-12-09T09:04:34.924Z,985.78
2018-12-09T09:05:34.917Z,985.80
2018-12-09T09:06:34.906Z,985.83
2018-12-09T09:07:34.900Z,985.79
2018-12-09T09:08:34.884Z,985.77
2018-12-09T09:09:35.698Z,985.79
2018-12-09T09:10:34.871Z,985.79
2018-12-09T09:11:34.854Z,985.79
2018-12-09T09:12:34.846Z,985.78
2018-12-09T09:13:34.831Z,985.75
2018-12-09T09:14:34.816Z,985.72
2018-12-09T09:15:35.117Z,985.77
2018-12-09T09:16:34.803Z,985.79
2018-12-09T09:17:34.787Z,985.77
2018-12-09T09:18:34.774Z,985.80
2018-12-09T09:19:34.772Z,985.81
2018-12-09T09:20:34.755Z,985.76
2018-12-09T09:21:34.781Z,985.76
2018-12-09T09:22:36.385Z,985.79
2018-12-09T09:23:34.730Z,985.77
2018-12-09T09:24:34.715Z,985.78
2018-12-09T09:25:34.701Z,985.79
2018-12-09T09:26:34.695Z,985.82
2018-12-09T09:27:34.740Z,985.79
2018-12-09T09:28:34.677Z,985.77
2018-12-09T09:29:34.672Z,985.74
2018-12-09T09:30:34.652Z,985.74
2018-12-09T09:31:34.635Z,985.74
2018-12-09T09:32:34.631Z,985.75
2018-12-09T09:33:37.388Z,985.72
2018-12-09T09:34:45.316Z,985.73
2018-12-09T09:35:34.601Z,985.74
2018-12-09T09:36:34.584Z,985.75
2018-12-09T09:37:34.574Z,985.78
2018-12-09T09:38:34.565Z,985.75
2018-12-09T09:39:34.601Z,985.78
2018-12-09T09:40:34.540Z,985.81
2018-12-09T09:41:34.530Z,985.78
2018-12-09T09:42:34.533Z,985.76
2018-12-09T09:43:34.509Z,985.75
2018-12-09T09:44:34.497Z,985.83
2018-12-09T09:45:34.561Z,985.75
2018-12-09T09:46:34.478Z,985.77
2018-12-09T09:47:34.472Z,985.80
2018-12-09T09:48:34.573Z,985.77
2018-12-09T09:49:34.443Z,985.82
2018-12-09T09:50:34.438Z,985.77
2018-12-09T09:51:34.445Z,985.74
2018-12-09T09:52:34.429Z,985.78
2018-12-09T09:53:34.410Z,985.77
2018-12-09T09:54:34.398Z,985.72
2018-12-09T09:55:34.391Z,985.71
2018-12-09T09:56:34.374Z,985.72
2018-12-09T09:57:34.434Z,985.69
2018-12-09T09:58:34.352Z,985.71
2018-12-09T09:59:34.342Z,985.68
2018-12-09T10:00:34.329Z,985.63
2018-12-09T10:01:34.317Z,985.67
2018-12-09T10:02:34.308Z,985.71
2018-12-09T10:03:34.334Z,985.75
2018-12-09T10:04:34.285Z,985.74
2018-12-09T10:05:45.171Z,985.75
2018-12-09T10:06:34.265Z,985.73
2018-12-09T10:07:34.255Z,985.70
2018-12-09T10:08:34.246Z,985.70
2018-12-09T10:09:34.638Z,985.79
2018-12-09T10:10:34.221Z,985.79
2018-12-09T10:11:34.217Z,985.78
2018-12-09T10:12:34.210Z,985.71
2018-12-09T10:13:34.195Z,985.71
2018-12-09T10:14:34.177Z,985.71
2018-12-09T10:15:34.963Z,985.72
2018-12-09T10:16:34.159Z,985.67
2018-12-09T10:17:34.156Z,985.69
2018-12-09T10:18:34.143Z,985.71
2018-12-09T10:19:34.128Z,985.71
2018-12-09T10:20:34.114Z,985.72
2018-12-09T10:21:34.147Z,985.74
2018-12-09T10:22:34.094Z,985.83
2018-12-09T10:23:34.089Z,985.75
2018-12-09T10:24:34.074Z,985.75
2018-12-09T10:25:34.064Z,985.74
2018-12-09T10:26:36.642Z,985.72
2018-12-09T10:27:34.059Z,985.70
2018-12-09T10:28:34.032Z,985.65
2018-12-09T10:29:34.019Z,985.65
2018-12-09T10:30:34.012Z,985.67
2018-12-09T10:31:41.295Z,985.63
2018-12-09T10:32:41.688Z,985.71
2018-12-09T10:33:33.980Z,985.70
2018-12-09T10:34:38.786Z,985.71
2018-12-09T10:35:34.960Z,985.68
2018-12-09T10:36:33.943Z,985.72
2018-12-09T10:37:33.940Z,985.79
2018-12-09T10:38:34.194Z,985.75
2018-12-09T10:39:33.925Z,985.70
2018-12-09T10:40:33.915Z,985.72
2018-12-09T10:41:33.897Z,985.76
2018-12-09T10:42:33.880Z,985.72
2018-12-09T10:43:33.873Z,985.78
2018-12-09T10:44:33.898Z,985.75
2018-12-09T10:45:33.855Z,985.74
2018-12-09T10:46:33.849Z,985.81
2018-12-09T10:47:33.843Z,985.81
2018-12-09T10:48:33.822Z,985.79
2018-12-09T10:49:33.811Z,985.77
2018-12-09T10:50:33.834Z,985.78
2018-12-09T10:51:33.789Z,985.82
2018-12-09T10:52:33.776Z,985.80
2018-12-09T10:53:33.768Z,985.74
2018-12-09T10:54:33.770Z,985.79
2018-12-09T10:55:33.741Z,985.82
2018-12-09T10:56:33.752Z,985.89
2018-12-09T10:57:33.728Z,985.81
2018-12-09T10:58:33.709Z,985.88
2018-12-09T10:59:33.699Z,985.83
2018-12-09T11:00:33.698Z,985.85
2018-12-09T11:01:34.607Z,985.93
2018-12-09T11:02:33.705Z,985.87
2018-12-09T11:03:44.037Z,985.90
2018-12-09T11:04:40.943Z,985.89
2018-12-09T11:05:40.623Z,985.91
2018-12-09T11:06:40.616Z,985.90
2018-12-09T11:07:33.617Z,985.87
2018-12-09T11:08:33.759Z,985.82
2018-12-09T11:09:33.599Z,985.86
2018-12-09T11:10:33.596Z,985.86
2018-12-09T11:11:33.581Z,985.88
2018-12-09T11:12:33.563Z,985.85
2018-12-09T11:13:33.555Z,985.85
2018-12-09T11:14:33.596Z,985.81
2018-12-09T11:15:33.533Z,985.81
2018-12-09T11:16:33.519Z,985.80
2018-12-09T11:17:33.786Z,985.78
2018-12-09T11:18:33.498Z,985.80
2018-12-09T11:19:33.498Z,985.76
2018-12-09T11:20:33.532Z,985.82
2018-12-09T11:21:33.468Z,985.79
2018-12-09T11:22:33.461Z,985.76
2018-12-09T11:23:33.445Z,985.77
2018-12-09T11:24:33.434Z,985.75
2018-12-09T11:25:33.437Z,985.76
2018-12-09T11:26:33.450Z,985.80
2018-12-09T11:27:33.420Z,985.86
2018-12-09T11:28:33.394Z,985.74
2018-12-09T11:29:33.380Z,985.75
2018-12-09T11:30:33.375Z,985.77
2018-12-09T11:31:33.367Z,985.82
2018-12-09T11:32:33.427Z,985.82
2018-12-09T11:33:33.345Z,985.81
2018-12-09T11:34:33.328Z,985.81
2018-12-09T11:35:33.317Z,985.76
2018-12-09T11:36:33.305Z,985.82
2018-12-09T11:37:45.019Z,985.78
2018-12-09T11:38:33.287Z,985.81
2018-12-09T11:39:33.274Z,985.82
2018-12-09T11:40:33.273Z,985.81
2018-12-09T11:41:33.255Z,985.83
2018-12-09T11:42:33.249Z,985.89
2018-12-09T11:43:33.764Z,985.85
2018-12-09T11:44:33.225Z,985.87
2018-12-09T11:45:33.215Z,985.79
2018-12-09T11:46:33.204Z,985.83
2018-12-09T11:47:33.196Z,985.82
2018-12-09T11:48:33.185Z,985.86
2018-12-09T11:49:33.284Z,985.93
2018-12-09T11:50:33.163Z,985.87
2018-12-09T11:51:33.146Z,985.88
2018-12-09T11:52:33.141Z,985.84
2018-12-09T11:53:33.127Z,985.83
2018-12-09T11:54:33.119Z,985.83
2018-12-09T11:55:33.124Z,985.80
2018-12-09T11:56:33.101Z,985.82
2018-12-09T11:57:33.090Z,985.84
2018-12-09T11:58:33.079Z,985.79
2018-12-09T11:59:33.064Z,985.77
2018-12-09T12:00:33.056Z,985.74
2018-12-09T12:01:33.058Z,985.74
2018-12-09T12:02:33.035Z,985.69
2018-12-09T12:03:33.021Z,985.79
2018-12-09T12:04:33.012Z,985.82
2018-12-09T12:05:32.999Z,985.79
2018-12-09T12:06:32.987Z,985.81
2018-12-09T12:07:33.019Z,985.75
2018-12-09T12:08:45.107Z,985.80
2018-12-09T12:09:32.958Z,985.71
2018-12-09T12:10:32.945Z,985.71
2018-12-09T12:11:32.938Z,985.71
2018-12-09T12:12:32.927Z,985.72
2018-12-09T12:13:32.961Z,985.58
2018-12-09T12:14:32.910Z,985.61
2018-12-09T12:15:32.895Z,985.62
2018-12-09T12:16:32.884Z,985.65
2018-12-09T12:17:32.881Z,985.60
2018-12-09T12:18:32.866Z,985.66
2018-12-09T12:19:32.892Z,985.60
2018-12-09T12:20:32.844Z,985.57
2018-12-09T12:21:32.834Z,985.57
2018-12-09T12:22:32.829Z,985.60
2018-12-09T12:23:32.811Z,985.54
2018-12-09T12:24:32.797Z,985.55
2018-12-09T12:25:32.808Z,985.58
2018-12-09T12:26:32.773Z,985.60
2018-12-09T12:27:32.763Z,985.62
2018-12-09T12:28:32.769Z,985.64